Terminal Aerodrome Forecast
Issued by NWS

Home | Current Version | Previous Version | Text Only | Print | Product List | Glossary On
Versions: 1 2 3 4 5 6 7 8 9 10 11 12 13 14
656
FTUS42 KMHX 231303 AAA
TAFISO
TAF AMD
KISO 231303Z 2313/2412 02003KT 5SM -RA OVC010
      TEMPO 2313/2315 BKN009
     FM231700 06011KT P6SM VCSH OVC015
     FM240000 05008KT P6SM VCSH OVC007
     FM240700 06005KT 5SM -SHRA OVC007
      AMD LTD TO CLD VIS AND WIND=

USA.gov is the U.S. government's official web portal to all federal, state and local government web resources and services.